Aviation Digital Data Service (ADDS)

Output produced by METARs form (0221 UTC 22 April 2019)
found at http://www.aviationweather.gov/metar/data/
 
Forecast for: ZSNB (NINGBO/LISHE , CN)
Text: TAF ZSNB 211935Z 2200/2224 12004MPS 3500 BR BKN020 TX25/2206Z TN19/2221Z
Forecast period: 0000 UTC 22 April 2019 to 0000 UTC 23 April 2019
Forecast type: FROM: standard forecast or significant change
Winds: from the ESE (120 degrees) at 9 MPH (8 knots; 4.1 m/s)
Visibility: 2.17 miles (3.49 km)
Ceiling: 2000 feet AGL
Clouds: broken clouds at 2000 feet AGL
Weather: BR  (mist)
Text: TEMPO 2205/2211 SHRA FEW008 BKN020 FEW030CB
Forecast period: 0500 to 1100 UTC 22 April 2019
Forecast type: TEMPORARY: The following changes expected for less than half the time period
Visibility: missing
Ceiling: 2000 feet AGL
Clouds: few clouds at 800 feet AGL
broken clouds at 2000 feet AGL
few clouds at 3000 feet AGL
Weather: SHRA  (rain showers)